Time;durP1;ratioP1;P1;durP2;ratioP2;P2;SDS_P1;SDS_P2;PMS_P1;PMS_P2;Temp;Humidity;BMP_temperature;BMP_pressure;BME280_temperature;BME280_humidity;BME280_pressure;Samples;Min_cycle;Max_cycle;Signal;HPM_P1;HPM_P2
2021/01/30 00:00:43;;;;;;;3.73;1.30;;;6.00;99.90;;;;;;5137888;28;20435;-34
2021/01/30 00:03:10;;;;;;;1.40;0.90;;;6.00;99.90;;;;;;5139265;27;20409;-35
2021/01/30 00:05:36;;;;;;;2.80;1.10;;;6.10;99.90;;;;;;5139067;27;20523;-36
2021/01/30 00:08:03;;;;;;;1.73;1.00;;;6.10;99.90;;;;;;5139410;27;20412;-36
2021/01/30 00:10:29;;;;;;;5.27;1.63;;;6.10;99.90;;;;;;5142880;27;20436;-36
2021/01/30 00:12:55;;;;;;;4.57;1.43;;;6.00;99.90;;;;;;5142993;27;20420;-36
2021/01/30 00:15:24;;;;;;;2.27;1.07;;;6.00;99.90;;;;;;5142747;27;20215;-36
2021/01/30 00:17:51;;;;;;;3.87;1.20;;;6.00;99.90;;;;;;5142772;27;20508;-35
2021/01/30 00:20:22;;;;;;;1.03;0.73;;;6.00;99.90;;;;;;5143411;27;20425;-39
2021/01/30 00:22:53;;;;;;;1.30;1.07;;;6.00;99.90;;;;;;5148004;27;20857;-35
2021/01/30 00:25:24;;;;;;;1.53;0.70;;;6.10;99.90;;;;;;5147394;27;20421;-36
2021/01/30 00:27:49;;;;;;;2.70;1.00;;;6.10;99.90;;;;;;5149107;27;20446;-35
2021/01/30 00:30:18;;;;;;;1.90;1.03;;;6.10;99.90;;;;;;5148713;27;20416;-36
2021/01/30 00:32:45;;;;;;;1.77;1.17;;;6.00;99.90;;;;;;5149780;27;20218;-36
2021/01/30 00:35:12;;;;;;;2.10;1.27;;;6.00;99.90;;;;;;5143949;27;20468;-36
2021/01/30 00:37:38;;;;;;;3.17;1.10;;;6.00;99.90;;;;;;5142364;27;20680;-35
2021/01/30 00:40:05;;;;;;;3.43;0.90;;;6.00;99.90;;;;;;5141960;27;20573;-35
2021/01/30 00:42:31;;;;;;;1.80;1.23;;;6.00;99.90;;;;;;5142013;27;20943;-36
2021/01/30 00:44:57;;;;;;;1.63;1.17;;;5.90;99.90;;;;;;5141716;27;20416;-36
2021/01/30 00:47:23;;;;;;;6.90;1.13;;;6.00;99.90;;;;;;5140762;27;20886;-34
2021/01/30 00:49:49;;;;;;;1.93;0.90;;;6.00;99.90;;;;;;5141355;27;20488;-36
2021/01/30 00:52:20;;;;;;;1.93;0.83;;;6.00;99.90;;;;;;5141457;27;20191;-35
2021/01/30 00:54:46;;;;;;;4.87;1.13;;;6.00;99.90;;;;;;5140929;27;20462;-36
2021/01/30 00:57:12;;;;;;;1.90;0.97;;;5.90;99.90;;;;;;5141787;27;20409;-36
2021/01/30 00:59:40;;;;;;;2.50;0.93;;;6.00;99.90;;;;;;5141963;27;20458;-36
2021/01/30 01:02:06;;;;;;;2.07;0.80;;;6.00;99.90;;;;;;5141904;27;20744;-36
2021/01/30 01:04:32;;;;;;;2.97;1.20;;;6.00;99.90;;;;;;5140857;27;20417;-34
2021/01/30 01:06:57;;;;;;;1.70;0.83;;;5.90;99.90;;;;;;5142041;27;20485;-34
2021/01/30 01:09:23;;;;;;;1.87;0.87;;;5.90;99.90;;;;;;5142196;27;20461;-35
2021/01/30 01:11:51;;;;;;;1.90;0.90;;;5.90;99.90;;;;;;5142196;27;20271;-35
2021/01/30 01:14:21;;;;;;;2.07;0.70;;;6.00;99.90;;;;;;5141822;27;20830;-36
2021/01/30 01:16:47;;;;;;;2.47;1.23;;;6.00;99.90;;;;;;5141477;27;20946;-35
2021/01/30 01:19:13;;;;;;;0.93;0.70;;;6.00;99.90;;;;;;5141694;27;20409;-36
2021/01/30 01:21:39;;;;;;;1.03;0.60;;;6.00;99.90;;;;;;5141822;27;20187;-34
2021/01/30 01:24:05;;;;;;;2.00;0.77;;;6.00;99.90;;;;;;5141800;27;20409;-35
2021/01/30 01:26:31;;;;;;;1.30;0.70;;;5.90;99.90;;;;;;5141515;27;20515;-35
2021/01/30 01:28:58;;;;;;;2.00;1.03;;;5.90;99.90;;;;;;5141696;27;20512;-36
2021/01/30 01:31:24;;;;;;;2.60;1.00;;;6.00;99.90;;;;;;5141319;27;20198;-36
2021/01/30 01:33:50;;;;;;;2.70;0.80;;;6.10;99.90;;;;;;5135504;27;20515;-35
2021/01/30 01:36:17;;;;;;;1.00;0.50;;;6.00;99.90;;;;;;5120836;27;20641;-36
2021/01/30 01:38:44;;;;;;;1.80;0.60;;;5.90;99.90;;;;;;5120697;28;20179;-35
2021/01/30 01:41:11;;;;;;;2.50;0.77;;;6.00;99.90;;;;;;5120640;28;20703;-35
2021/01/30 01:43:37;;;;;;;2.10;0.73;;;5.90;99.90;;;;;;5120579;28;20406;-35
2021/01/30 01:46:28;;;;;;;3.20;0.80;;;5.90;99.90;;;;;;5120826;28;20827;-36
2021/01/30 01:48:57;;;;;;;4.77;0.50;;;5.80;99.90;;;;;;5119851;28;20554;-35
2021/01/30 01:51:43;;;;;;;1.23;0.50;;;5.80;99.90;;;;;;5120713;28;20951;-35
2021/01/30 01:54:13;;;;;;;0.80;0.50;;;5.80;99.90;;;;;;5119524;28;20878;-35
2021/01/30 01:56:40;;;;;;;2.17;0.70;;;5.80;99.90;;;;;;5119740;28;20425;-34
2021/01/30 01:59:14;;;;;;;1.83;0.60;;;5.70;99.90;;;;;;5120669;28;20398;-35
2021/01/30 02:01:40;;;;;;;1.10;0.70;;;5.70;99.90;;;;;;5118840;28;20413;-36
2021/01/30 02:04:11;;;;;;;1.20;0.53;;;5.70;99.90;;;;;;5119421;28;20413;-35
2021/01/30 02:06:43;;;;;;;1.57;0.77;;;5.70;99.90;;;;;;5118910;28;20417;-36
2021/01/30 02:09:12;;;;;;;0.70;0.40;;;5.60;99.90;;;;;;5119541;28;20492;-35
2021/01/30 02:11:38;;;;;;;0.87;0.50;;;5.60;99.90;;;;;;5119603;28;20417;-35
2021/01/30 02:14:06;;;;;;;0.90;0.60;;;5.50;99.90;;;;;;5119631;28;20644;-36
2021/01/30 02:16:46;;;;;;;1.27;0.67;;;5.50;99.90;;;;;;5118990;28;20474;-36
2021/01/30 02:19:50;;;;;;;1.43;0.70;;;5.50;99.90;;;;;;5118238;28;20402;-35
2021/01/30 02:22:33;;;;;;;1.27;0.60;;;5.50;99.90;;;;;;5077909;28;20433;-35
2021/01/30 02:25:27;;;;;;;2.27;0.50;;;5.40;99.90;;;;;;5116945;28;20695;-35
2021/01/30 02:27:59;;;;;;;5.23;0.60;;;5.50;99.90;;;;;;5119632;28;20397;-34
2021/01/30 02:31:02;;;;;;;1.30;0.60;;;5.40;99.90;;;;;;5119178;28;20453;-36
2021/01/30 02:33:36;;;;;;;2.93;0.60;;;5.40;99.90;;;;;;5119419;28;20397;-36
2021/01/30 02:36:37;;;;;;;0.80;0.47;;;5.30;99.90;;;;;;5119471;27;20575;-35
2021/01/30 02:39:09;;;;;;;1.70;0.60;;;5.20;99.90;;;;;;5105544;28;20424;-45
2021/01/30 02:41:37;;;;;;;1.57;0.60;;;5.30;99.90;;;;;;5119171;28;20421;-45
2021/01/30 02:44:05;;;;;;;1.17;0.60;;;5.20;99.90;;;;;;5118806;28;20684;-45
2021/01/30 02:46:37;;;;;;;0.90;0.70;;;5.30;99.90;;;;;;5118956;28;20422;-45
2021/01/30 02:49:11;;;;;;;1.30;0.90;;;5.30;99.90;;;;;;5118038;28;20410;-45
2021/01/30 02:54:59;;;;;;;1.20;0.70;;;5.30;99.90;;;;;;5118458;28;20533;-46
2021/01/30 02:57:27;;;;;;;1.30;0.87;;;5.30;99.90;;;;;;5118877;28;20421;-45
2021/01/30 02:59:54;;;;;;;1.00;0.67;;;5.30;99.90;;;;;;5117575;28;20937;-45
2021/01/30 03:02:25;;;;;;;1.47;0.80;;;5.30;99.90;;;;;;5118629;28;20402;-45
2021/01/30 03:04:53;;;;;;;1.17;0.60;;;5.40;99.90;;;;;;5118333;28;20409;-45
2021/01/30 03:07:25;;;;;;;1.83;0.80;;;5.40;99.90;;;;;;5118440;28;20406;-45
2021/01/30 03:10:13;;;;;;;1.73;0.70;;;5.40;99.90;;;;;;5118585;28;20417;-45
2021/01/30 03:13:09;;;;;;;1.00;0.50;;;5.40;99.90;;;;;;5117611;28;20406;-45
2021/01/30 03:15:46;;;;;;;0.93;0.70;;;5.50;99.90;;;;;;5117939;28;21027;-45
2021/01/30 03:18:14;;;;;;;5.40;1.37;;;5.50;99.90;;;;;;5118417;28;20413;-45
2021/01/30 03:20:42;;;;;;;0.90;0.60;;;5.50;99.90;;;;;;5117721;28;20725;-45
2021/01/30 03:23:09;;;;;;;1.10;0.73;;;5.60;99.90;;;;;;5117735;28;20803;-45
2021/01/30 03:25:37;;;;;;;0.97;0.70;;;5.50;99.90;;;;;;5118204;28;20475;-45
2021/01/30 03:28:03;;;;;;;1.30;0.47;;;5.50;99.90;;;;;;5117595;28;20414;-46
2021/01/30 03:30:31;;;;;;;0.80;0.50;;;5.50;99.90;;;;;;5118064;28;20490;-45
2021/01/30 03:32:56;;;;;;;2.40;0.63;;;5.50;99.90;;;;;;5118572;28;20436;-45
2021/01/30 03:35:22;;;;;;;0.90;0.63;;;5.50;99.90;;;;;;5118039;28;20469;-45
2021/01/30 03:37:48;;;;;;;1.10;0.90;;;5.50;99.90;;;;;;5123676;27;20214;-45
2021/01/30 03:40:15;;;;;;;2.80;1.00;;;5.50;99.90;;;;;;5136071;27;20191;-45
2021/01/30 03:42:48;;;;;;;2.60;0.63;;;5.50;99.90;;;;;;5138903;27;20183;-45
2021/01/30 03:45:32;;;;;;;1.07;0.57;;;5.50;99.90;;;;;;5138937;27;20429;-45
2021/01/30 03:48:00;;;;;;;1.17;0.70;;;5.50;99.90;;;;;;5136075;27;20443;-46
2021/01/30 03:50:26;;;;;;;0.97;0.63;;;5.50;99.90;;;;;;5117763;28;20488;-45
2021/01/30 03:52:52;;;;;;;1.03;0.60;;;5.50;99.90;;;;;;5131029;28;20420;-35
2021/01/30 03:55:19;;;;;;;3.43;1.23;;;5.60;99.90;;;;;;5137923;27;20225;-35
2021/01/30 03:57:45;;;;;;;1.83;0.70;;;5.60;99.90;;;;;;5131449;27;20428;-35
2021/01/30 04:00:14;;;;;;;0.83;0.60;;;5.50;99.90;;;;;;5138682;27;20432;-36
2021/01/30 04:02:40;;;;;;;2.90;0.87;;;5.50;99.90;;;;;;5138982;27;20405;-36
2021/01/30 04:05:08;;;;;;;2.17;0.80;;;5.50;99.90;;;;;;5139198;27;20436;-36
2021/01/30 04:07:35;;;;;;;1.23;0.57;;;5.50;99.90;;;;;;5138564;27;20703;-36
2021/01/30 04:10:02;;;;;;;1.17;0.67;;;5.50;99.90;;;;;;5138552;27;20432;-36
2021/01/30 04:12:28;;;;;;;1.53;0.80;;;5.50;99.90;;;;;;5138508;27;20408;-45
2021/01/30 04:14:54;;;;;;;2.40;0.80;;;5.50;99.90;;;;;;5138081;27;20476;-45
2021/01/30 04:17:20;;;;;;;4.20;1.00;;;5.50;99.90;;;;;;5138351;27;20233;-45
2021/01/30 04:19:46;;;;;;;0.80;0.53;;;5.50;99.90;;;;;;5137972;27;20175;-45
2021/01/30 04:22:11;;;;;;;2.73;1.27;;;5.50;99.90;;;;;;5138717;27;20186;-45
2021/01/30 04:24:38;;;;;;;3.23;0.67;;;5.50;99.90;;;;;;5138450;27;20209;-45
2021/01/30 04:27:04;;;;;;;3.50;1.00;;;5.50;99.90;;;;;;5138386;28;20423;-45
2021/01/30 04:29:29;;;;;;;2.83;0.80;;;5.60;99.90;;;;;;5138538;28;20421;-45
2021/01/30 04:31:56;;;;;;;6.17;1.07;;;5.60;99.90;;;;;;5138448;27;20754;-45
2021/01/30 04:34:23;;;;;;;3.27;1.00;;;5.60;99.90;;;;;;5138131;27;20206;-45
2021/01/30 04:36:49;;;;;;;1.57;0.87;;;5.50;99.90;;;;;;5138754;27;20698;-44
2021/01/30 04:39:15;;;;;;;3.37;1.00;;;5.60;99.90;;;;;;5138340;28;20417;-34
2021/01/30 04:42:00;;;;;;;2.13;0.90;;;5.60;99.90;;;;;;5139022;28;20417;-34
2021/01/30 04:44:31;;;;;;;2.50;0.97;;;5.50;99.90;;;;;;5137439;28;20481;-35
2021/01/30 04:47:25;;;;;;;1.50;0.63;;;5.60;99.90;;;;;;5138086;28;20459;-36
2021/01/30 04:50:15;;;;;;;2.13;1.00;;;5.50;99.90;;;;;;5138264;28;20702;-35
2021/01/30 04:53:01;;;;;;;9.23;1.77;;;5.40;99.90;;;;;;5096160;27;20489;-36
2021/01/30 04:56:05;;;;;;;2.50;1.00;;;5.50;99.90;;;;;;5138751;27;20474;-36
2021/01/30 04:58:44;;;;;;;5.47;1.40;;;5.40;99.90;;;;;;5138369;28;20556;-36
2021/01/30 05:01:24;;;;;;;3.30;1.10;;;5.50;99.90;;;;;;5138177;28;20420;-36
2021/01/30 05:04:02;;;;;;;5.20;1.37;;;5.50;99.90;;;;;;5138233;27;20499;-36
2021/01/30 05:06:49;;;;;;;2.10;1.03;;;5.50;99.90;;;;;;5139339;27;20460;-36
2021/01/30 05:09:41;;;;;;;2.70;1.47;;;5.50;99.90;;;;;;5141889;27;20507;-35
2021/01/30 05:12:40;;;;;;;3.47;1.13;;;5.50;99.90;;;;;;5141813;27;20424;-34
2021/01/30 05:15:23;;;;;;;3.20;1.50;;;5.50;99.90;;;;;;5108197;27;20491;-35
2021/01/30 05:17:59;;;;;;;5.03;1.40;;;5.50;99.90;;;;;;5140119;27;20803;-35
2021/01/30 05:20:30;;;;;;;6.13;1.50;;;5.40;99.90;;;;;;5140854;27;20514;-36
2021/01/30 05:22:57;;;;;;;3.37;1.20;;;5.40;99.90;;;;;;5139441;27;20519;-36
2021/01/30 05:25:24;;;;;;;3.90;1.60;;;5.50;99.90;;;;;;5140446;27;20416;-35
2021/01/30 05:27:58;;;;;;;7.70;1.77;;;5.40;99.90;;;;;;5140552;27;20493;-35
2021/01/30 05:30:50;;;;;;;3.43;1.07;;;5.40;99.90;;;;;;5137641;27;20428;-35
2021/01/30 05:33:50;;;;;;;7.27;1.40;;;5.40;99.90;;;;;;5120375;28;20402;-35
2021/01/30 05:36:21;;;;;;;6.60;1.90;;;5.50;99.90;;;;;;5120281;28;20484;-35
2021/01/30 05:39:03;;;;;;;8.67;1.63;;;5.50;99.90;;;;;;5120206;27;20441;-35
2021/01/30 05:42:12;;;;;;;4.67;1.60;;;5.40;99.90;;;;;;5140754;27;20425;-36
2021/01/30 05:44:51;;;;;;;6.23;1.60;;;5.50;99.90;;;;;;5122879;27;20427;-36
2021/01/30 05:47:20;;;;;;;3.40;1.43;;;5.40;99.90;;;;;;5138924;27;20433;-36
2021/01/30 05:50:00;;;;;;;4.87;1.87;;;5.40;99.90;;;;;;5139770;27;20441;-35
2021/01/30 05:52:31;;;;;;;5.67;2.03;;;5.40;99.90;;;;;;5138700;27;20465;-35
2021/01/30 05:54:58;;;;;;;6.27;1.80;;;5.40;99.90;;;;;;5139546;27;20529;-36
2021/01/30 05:57:24;;;;;;;7.80;2.70;;;5.40;99.90;;;;;;5139996;27;20421;-35
2021/01/30 05:59:56;;;;;;;4.83;1.50;;;5.30;99.90;;;;;;5138857;27;20884;-36
2021/01/30 06:02:24;;;;;;;5.30;1.80;;;5.30;99.90;;;;;;5139925;27;20475;-35
2021/01/30 06:04:51;;;;;;;6.33;1.70;;;5.30;99.90;;;;;;5139815;27;20481;-35
2021/01/30 06:07:36;;;;;;;2.23;1.37;;;5.30;99.90;;;;;;5140739;27;20865;-35
2021/01/30 06:10:29;;;;;;;3.23;1.40;;;5.30;99.90;;;;;;5139453;27;20470;-34
2021/01/30 06:13:07;;;;;;;6.27;1.70;;;5.30;99.90;;;;;;5140545;27;20443;-35
2021/01/30 06:15:36;;;;;;;10.70;1.70;;;5.20;99.90;;;;;;5138881;27;20535;-36
2021/01/30 06:18:33;;;;;;;9.93;2.50;;;5.20;99.90;;;;;;5137032;27;20440;-34
2021/01/30 06:21:05;;;;;;;6.57;2.00;;;5.30;99.90;;;;;;5132691;27;20432;-35
2021/01/30 06:23:31;;;;;;;4.20;1.70;;;5.30;99.90;;;;;;5140380;27;20478;-33
2021/01/30 06:26:20;;;;;;;8.70;1.90;;;5.30;99.90;;;;;;5138859;27;20417;-35
2021/01/30 06:28:56;;;;;;;9.50;1.87;;;5.40;99.90;;;;;;5139816;27;20529;-35
2021/01/30 06:31:29;;;;;;;7.50;3.33;;;5.40;99.90;;;;;;5137340;27;20432;-35
2021/01/30 06:34:03;;;;;;;7.40;3.00;;;5.40;99.90;;;;;;5135802;27;20512;-36
2021/01/30 06:36:31;;;;;;;9.60;2.07;;;5.40;99.90;;;;;;5136881;27;20540;-35
2021/01/30 06:38:58;;;;;;;8.23;2.77;;;5.50;99.90;;;;;;5137951;27;20514;-35
2021/01/30 06:41:30;;;;;;;5.30;1.60;;;5.40;99.90;;;;;;5136032;27;20539;-35
2021/01/30 06:44:03;;;;;;;16.30;3.00;;;5.40;99.90;;;;;;5135608;27;20459;-35
2021/01/30 06:46:29;;;;;;;7.90;2.40;;;5.40;99.90;;;;;;5136418;27;20639;-35
2021/01/30 06:48:57;;;;;;;3.60;1.83;;;5.40;99.90;;;;;;5136081;27;20401;-34
2021/01/30 06:51:32;;;;;;;5.43;2.50;;;5.30;99.90;;;;;;5121091;27;20780;-36
2021/01/30 06:54:16;;;;;;;14.63;3.57;;;5.30;99.90;;;;;;5139083;27;20420;-35
2021/01/30 06:56:43;;;;;;;6.43;2.57;;;5.40;99.90;;;;;;5139809;27;20755;-35
2021/01/30 06:59:15;;;;;;;3.53;1.80;;;5.40;99.90;;;;;;5138611;27;20438;-36
2021/01/30 07:01:44;;;;;;;6.97;2.30;;;5.30;99.90;;;;;;5140030;27;20455;-35
2021/01/30 07:04:29;;;;;;;6.80;2.57;;;5.30;99.90;;;;;;5139255;27;20512;-36
2021/01/30 07:07:23;;;;;;;10.57;2.60;;;5.30;99.90;;;;;;5140493;27;20830;-35
2021/01/30 07:10:11;;;;;;;5.47;2.00;;;5.40;99.90;;;;;;5144441;27;20420;-36
2021/01/30 07:12:59;;;;;;;10.07;3.67;;;5.40;99.90;;;;;;5137363;27;20429;-36
2021/01/30 07:15:26;;;;;;;6.60;2.70;;;5.40;99.90;;;;;;5137969;27;20592;-35
2021/01/30 07:17:59;;;;;;;5.70;2.33;;;5.50;99.90;;;;;;5139628;27;20433;-36
2021/01/30 07:20:35;;;;;;;7.93;2.37;;;5.50;99.90;;;;;;5138743;27;20717;-35
2021/01/30 07:23:13;;;;;;;10.87;2.83;;;5.50;99.90;;;;;;5136958;27;20429;-36
2021/01/30 07:25:59;;;;;;;7.00;2.53;;;5.60;99.90;;;;;;5124380;27;20768;-35
2021/01/30 07:28:31;;;;;;;12.43;3.10;;;5.70;99.90;;;;;;5125111;27;20424;-36
2021/01/30 07:31:23;;;;;;;8.80;2.70;;;5.70;99.90;;;;;;5121499;27;20501;-36
2021/01/30 07:33:51;;;;;;;9.43;3.67;;;5.70;99.90;;;;;;5123325;27;20401;-36
2021/01/30 07:36:23;;;;;;;8.67;2.70;;;5.70;99.90;;;;;;5138877;27;20780;-36
2021/01/30 07:38:58;;;;;;;12.70;3.20;;;5.70;99.90;;;;;;5139264;27;20428;-37
2021/01/30 07:41:50;;;;;;;7.43;2.60;;;5.80;99.90;;;;;;5138144;27;20786;-37
2021/01/30 07:44:25;;;;;;;5.67;2.83;;;5.80;99.90;;;;;;5137400;27;20705;-36
2021/01/30 07:47:16;;;;;;;8.10;2.80;;;5.90;99.90;;;;;;5138087;27;20432;-37
2021/01/30 07:49:46;;;;;;;3.83;2.17;;;6.00;99.90;;;;;;5132966;27;20413;-37
2021/01/30 07:52:29;;;;;;;15.90;3.30;;;6.00;99.90;;;;;;5140170;27;20699;-37
2021/01/30 07:54:57;;;;;;;5.90;2.00;;;6.10;99.90;;;;;;5121015;28;20496;-37
2021/01/30 07:57:56;;;;;;;7.87;2.60;;;6.20;99.90;;;;;;5118504;28;20433;-38
2021/01/30 08:00:42;;;;;;;13.73;2.87;;;6.20;99.90;;;;;;5136489;28;20413;-37
2021/01/30 08:03:14;;;;;;;10.90;2.70;;;6.30;99.90;;;;;;5138997;28;20404;-38
2021/01/30 08:06:30;;;;;;;7.03;2.93;;;6.40;99.90;;;;;;5130563;28;20852;-37
2021/01/30 08:09:05;;;;;;;6.90;2.80;;;6.40;99.90;;;;;;5100021;28;20498;-38
2021/01/30 08:11:39;;;;;;;5.87;2.70;;;6.40;99.90;;;;;;5138354;28;20710;-36
2021/01/30 08:14:19;;;;;;;5.93;2.20;;;6.40;99.90;;;;;;5138980;27;20412;-39
2021/01/30 08:17:03;;;;;;;8.50;2.17;;;6.50;99.90;;;;;;5139251;27;20548;-37
2021/01/30 08:19:33;;;;;;;10.57;3.37;;;6.50;99.90;;;;;;5137407;28;20759;-37
2021/01/30 08:22:08;;;;;;;8.83;3.10;;;6.60;99.90;;;;;;5136679;28;20423;-36
2021/01/30 08:24:45;;;;;;;7.90;3.00;;;6.50;99.90;;;;;;5135885;28;20519;-37
2021/01/30 08:27:19;;;;;;;8.07;2.30;;;6.50;99.90;;;;;;5135349;28;20473;-37
2021/01/30 08:29:49;;;;;;;6.83;2.73;;;6.60;99.90;;;;;;5130925;28;20454;-37
2021/01/30 08:32:23;;;;;;;11.17;2.87;;;6.60;99.90;;;;;;5139274;27;20833;-37
2021/01/30 08:34:51;;;;;;;7.03;2.90;;;6.60;99.90;;;;;;5133662;27;20464;-37
2021/01/30 08:37:20;;;;;;;9.43;2.60;;;6.60;99.90;;;;;;5132026;28;20857;-36
2021/01/30 08:40:01;;;;;;;6.20;2.50;;;6.60;99.90;;;;;;5139657;28;20481;-37
2021/01/30 08:42:33;;;;;;;7.10;2.90;;;6.60;99.90;;;;;;5142086;27;20818;-37
2021/01/30 08:45:03;;;;;;;9.67;3.13;;;6.60;99.90;;;;;;5142391;27;20412;-38
2021/01/30 08:47:34;;;;;;;10.43;3.20;;;6.60;99.90;;;;;;5141176;27;20509;-37
2021/01/30 08:50:29;;;;;;;9.43;3.27;;;6.60;99.90;;;;;;5141597;27;20714;-37
2021/01/30 08:53:08;;;;;;;9.07;2.90;;;6.70;99.90;;;;;;5143042;27;20432;-37
2021/01/30 08:55:46;;;;;;;13.00;2.80;;;6.80;99.90;;;;;;5143327;27;20464;-36
2021/01/30 08:58:36;;;;;;;9.80;4.10;;;6.80;99.90;;;;;;5125460;28;20437;-37
2021/01/30 09:01:10;;;;;;;5.77;2.83;;;6.90;99.90;;;;;;5122324;28;20424;-38
2021/01/30 09:03:41;;;;;;;11.97;3.00;;;6.90;99.90;;;;;;5121349;28;20456;-37
2021/01/30 09:06:09;;;;;;;8.50;2.97;;;6.90;99.90;;;;;;5135542;27;20461;-37
2021/01/30 09:08:42;;;;;;;13.37;4.10;;;6.90;99.90;;;;;;5139790;27;20433;-37
2021/01/30 09:11:40;;;;;;;10.53;3.17;;;6.90;99.90;;;;;;5141561;27;20473;-37
2021/01/30 09:14:19;;;;;;;11.37;2.63;;;7.00;99.90;;;;;;5137123;27;20829;-37
2021/01/30 09:16:56;;;;;;;12.67;4.10;;;7.10;99.90;;;;;;5120770;28;20515;-37
2021/01/30 09:19:46;;;;;;;8.53;3.17;;;7.20;99.90;;;;;;5120364;27;20494;-37
2021/01/30 09:22:44;;;;;;;11.13;3.00;;;7.30;99.70;;;;;;5133239;27;20437;-37
2021/01/30 09:25:15;;;;;;;8.97;2.80;;;7.30;99.50;;;;;;5143548;27;20838;-37
2021/01/30 09:28:01;;;;;;;8.30;2.47;;;7.10;99.70;;;;;;5142559;27;20432;-37
2021/01/30 09:30:43;;;;;;;11.00;3.23;;;7.30;99.90;;;;;;5137378;27;20691;-37
2021/01/30 09:33:17;;;;;;;8.60;2.97;;;7.30;99.50;;;;;;5118541;28;20433;-37
2021/01/30 09:35:44;;;;;;;13.70;3.23;;;7.30;99.40;;;;;;5138552;27;20460;-36
2021/01/30 09:38:39;;;;;;;11.07;4.50;;;7.40;99.20;;;;;;5139548;27;20440;-36
2021/01/30 09:41:06;;;;;;;9.43;3.57;;;7.40;99.50;;;;;;5124765;27;20887;-37
2021/01/30 09:43:32;;;;;;;11.63;3.30;;;7.50;99.90;;;;;;5140679;27;20420;-37
2021/01/30 09:45:58;;;;;;;12.20;2.80;;;7.40;99.50;;;;;;5141106;27;20400;-35
2021/01/30 09:48:25;;;;;;;5.80;2.73;;;7.30;99.20;;;;;;5141330;27;20577;-37
2021/01/30 09:50:53;;;;;;;9.07;3.33;;;7.40;99.50;;;;;;5125274;27;20681;-36
2021/01/30 09:53:50;;;;;;;11.53;3.10;;;7.50;99.30;;;;;;5100667;27;20863;-36
2021/01/30 09:56:18;;;;;;;15.53;3.10;;;7.40;99.60;;;;;;5139984;27;20867;-36
2021/01/30 09:58:50;;;;;;;12.30;4.03;;;7.30;99.90;;;;;;5139763;27;20425;-37
2021/01/30 10:01:28;;;;;;;6.80;2.87;;;7.10;99.90;;;;;;5139741;27;20413;-37
2021/01/30 10:03:54;;;;;;;8.10;3.20;;;7.20;99.90;;;;;;5140905;27;20482;-36
2021/01/30 10:06:32;;;;;;;12.10;2.90;;;7.20;99.90;;;;;;5140317;27;20462;-35
2021/01/30 10:09:21;;;;;;;10.37;3.37;;;7.30;99.90;;;;;;5122205;27;20448;-36
2021/01/30 10:11:57;;;;;;;7.97;3.10;;;7.30;99.90;;;;;;5124574;27;20882;-36
2021/01/30 10:14:25;;;;;;;14.60;3.40;;;7.30;99.90;;;;;;5138232;27;20485;-36
2021/01/30 10:17:00;;;;;;;8.03;3.40;;;7.20;99.90;;;;;;5116702;28;20748;-36
2021/01/30 10:19:29;;;;;;;17.70;3.87;;;7.20;99.90;;;;;;5126931;27;20421;-37
2021/01/30 10:21:56;;;;;;;11.47;3.90;;;7.20;99.90;;;;;;5139465;27;20440;-38
2021/01/30 10:24:30;;;;;;;8.93;3.50;;;7.30;99.90;;;;;;5139122;27;20436;-37
2021/01/30 10:27:11;;;;;;;11.37;3.27;;;7.30;99.90;;;;;;5140130;27;20439;-38
2021/01/30 10:29:37;;;;;;;10.33;3.57;;;7.50;99.90;;;;;;5118953;27;20523;-37
2021/01/30 10:32:08;;;;;;;10.50;4.07;;;7.70;99.90;;;;;;5117553;28;20566;-38
2021/01/30 10:34:44;;;;;;;5.87;3.07;;;7.60;99.90;;;;;;5118052;28;20483;-37
2021/01/30 10:37:14;;;;;;;12.80;3.80;;;7.70;99.90;;;;;;5116372;28;20822;-38
2021/01/30 10:39:46;;;;;;;14.00;3.70;;;7.90;99.90;;;;;;5119255;27;20418;-37
2021/01/30 10:42:21;;;;;;;18.03;6.43;;;7.90;99.90;;;;;;5119158;28;20459;-37
2021/01/30 10:44:49;;;;;;;11.33;4.57;;;7.90;99.90;;;;;;5118416;28;20413;-37
2021/01/30 10:47:15;;;;;;;10.00;3.30;;;8.00;99.90;;;;;;5125699;27;20906;-37
2021/01/30 10:49:41;;;;;;;11.37;3.83;;;8.00;99.90;;;;;;5139007;27;20503;-38
2021/01/30 10:52:22;;;;;;;10.50;3.60;;;8.10;99.90;;;;;;5138617;27;20757;-38
2021/01/30 10:54:48;;;;;;;10.40;4.30;;;8.10;99.90;;;;;;5138737;27;20825;-36
2021/01/30 10:57:17;;;;;;;8.70;3.47;;;8.10;99.90;;;;;;5135304;27;20433;-37
2021/01/30 10:59:49;;;;;;;13.40;4.00;;;8.00;99.90;;;;;;5119057;28;20405;-36
2021/01/30 11:02:41;;;;;;;8.13;3.47;;;7.90;99.90;;;;;;5119413;28;20414;-36
2021/01/30 11:05:25;;;;;;;10.13;3.83;;;7.90;99.90;;;;;;5118576;27;20424;-36
2021/01/30 11:07:55;;;;;;;8.87;3.70;;;8.00;99.90;;;;;;5137022;27;20548;-37
2021/01/30 11:10:24;;;;;;;10.33;3.70;;;8.20;99.90;;;;;;5137283;27;20404;-36
2021/01/30 11:12:50;;;;;;;9.50;3.63;;;8.30;99.90;;;;;;5138125;27;20420;-37
2021/01/30 11:15:24;;;;;;;12.30;4.87;;;8.40;99.90;;;;;;5137119;27;20467;-37
2021/01/30 11:18:10;;;;;;;12.87;3.70;;;8.40;99.90;;;;;;5136597;27;20838;-37
2021/01/30 11:20:44;;;;;;;8.97;3.00;;;8.30;99.90;;;;;;5137639;27;20401;-36
2021/01/30 11:23:11;;;;;;;7.00;2.67;;;8.40;99.90;;;;;;5136170;27;20420;-37
2021/01/30 11:25:40;;;;;;;13.23;4.20;;;8.20;99.90;;;;;;5123815;27;20508;-36
2021/01/30 11:28:08;;;;;;;9.73;2.80;;;8.00;99.90;;;;;;5116707;28;20417;-37
2021/01/30 11:30:34;;;;;;;9.20;3.10;;;8.10;99.90;;;;;;5116201;28;20420;-36
2021/01/30 11:33:09;;;;;;;9.37;3.60;;;8.20;99.90;;;;;;5115444;28;20548;-35
2021/01/30 11:35:38;;;;;;;11.83;4.50;;;8.00;99.90;;;;;;5125337;27;20448;-37
2021/01/30 11:38:06;;;;;;;11.30;3.40;;;8.00;99.90;;;;;;5140667;27;20509;-36
2021/01/30 11:40:32;;;;;;;12.50;3.80;;;8.20;99.90;;;;;;5141411;27;20507;-36
2021/01/30 11:42:58;;;;;;;10.23;3.70;;;8.00;99.90;;;;;;5139835;27;20416;-36
2021/01/30 11:45:25;;;;;;;5.10;2.30;;;8.20;99.90;;;;;;5137595;27;20435;-37
2021/01/30 11:47:51;;;;;;;10.83;2.10;;;8.30;99.90;;;;;;5137529;27;20421;-37
2021/01/30 11:50:17;;;;;;;6.87;2.60;;;8.30;99.90;;;;;;5135706;27;20497;-37
2021/01/30 11:52:43;;;;;;;7.23;2.57;;;8.50;99.60;;;;;;5138027;27;20421;-37
2021/01/30 11:55:10;;;;;;;11.80;2.30;;;8.40;99.60;;;;;;5138259;27;20463;-37
2021/01/30 11:57:35;;;;;;;7.80;2.40;;;8.50;99.30;;;;;;5139114;27;20183;-37
2021/01/30 12:00:02;;;;;;;3.80;1.57;;;8.50;98.70;;;;;;5138273;28;20431;-37
2021/01/30 12:02:36;;;;;;;7.10;2.40;;;8.20;98.80;;;;;;5138706;27;20175;-36
2021/01/30 12:05:03;;;;;;;5.53;2.20;;;8.20;99.20;;;;;;5137234;28;20424;-36
2021/01/30 12:07:29;;;;;;;8.10;2.03;;;8.10;99.40;;;;;;5137420;27;20428;-37
2021/01/30 12:09:55;;;;;;;5.73;2.30;;;8.20;99.90;;;;;;5138524;28;20664;-36
2021/01/30 12:12:22;;;;;;;7.27;1.93;;;8.30;99.70;;;;;;5137444;28;20545;-37
2021/01/30 12:14:48;;;;;;;7.20;2.20;;;8.20;99.30;;;;;;5137449;27;20419;-36
2021/01/30 12:17:15;;;;;;;11.37;2.00;;;8.10;99.90;;;;;;5140061;27;20566;-35
2021/01/30 12:19:41;;;;;;;4.60;1.80;;;8.20;99.90;;;;;;5141083;27;20178;-37
2021/01/30 12:22:07;;;;;;;10.23;1.90;;;8.20;99.90;;;;;;5142247;27;20431;-37
2021/01/30 12:24:33;;;;;;;2.30;1.40;;;8.00;99.70;;;;;;5140341;27;20417;-37
2021/01/30 12:26:59;;;;;;;6.53;1.87;;;7.80;99.60;;;;;;5143299;27;20435;-37
2021/01/30 12:29:24;;;;;;;4.57;1.73;;;7.80;99.90;;;;;;5142567;27;20190;-37
2021/01/30 12:31:51;;;;;;;6.57;2.00;;;7.80;99.90;;;;;;5144994;27;20179;-37
2021/01/30 12:34:16;;;;;;;5.13;2.00;;;7.60;99.90;;;;;;5123681;27;20176;-37
2021/01/30 12:36:42;;;;;;;5.43;2.30;;;7.60;99.90;;;;;;5124134;28;20956;-37
2021/01/30 12:39:08;;;;;;;7.13;2.10;;;7.60;99.90;;;;;;5123785;28;20180;-37
2021/01/30 12:41:34;;;;;;;6.23;1.60;;;7.60;99.90;;;;;;5124211;27;20267;-37
2021/01/30 12:44:00;;;;;;;5.03;1.57;;;7.60;99.90;;;;;;5125926;28;20401;-38
2021/01/30 12:46:26;;;;;;;4.13;2.03;;;7.70;99.90;;;;;;5129587;28;20414;-37
2021/01/30 12:48:52;;;;;;;5.30;1.90;;;7.60;99.90;;;;;;5129553;28;20863;-38
2021/01/30 12:51:19;;;;;;;4.97;1.73;;;7.60;99.90;;;;;;5128448;27;20199;-38
2021/01/30 12:53:45;;;;;;;6.77;1.90;;;7.60;99.90;;;;;;5149633;27;20579;-38
2021/01/30 12:56:11;;;;;;;9.73;2.33;;;7.60;99.90;;;;;;5149501;27;20456;-38
2021/01/30 12:58:37;;;;;;;3.53;1.70;;;7.60;99.90;;;;;;5146562;27;20176;-37
2021/01/30 13:01:03;;;;;;;4.73;1.83;;;7.60;99.90;;;;;;5147906;27;20183;-37
2021/01/30 13:03:29;;;;;;;4.60;2.13;;;7.60;99.90;;;;;;5147396;27;20427;-37
2021/01/30 13:05:55;;;;;;;13.03;3.43;;;7.60;99.90;;;;;;5146203;27;20405;-37
2021/01/30 13:08:22;;;;;;;5.67;2.60;;;7.50;99.90;;;;;;5145013;27;20215;-37
2021/01/30 13:10:48;;;;;;;11.10;3.60;;;7.50;99.90;;;;;;5142154;27;20187;-37
2021/01/30 13:13:14;;;;;;;9.47;3.57;;;7.40;99.90;;;;;;5122721;28;20575;-37
2021/01/30 13:15:39;;;;;;;5.40;2.70;;;7.20;99.90;;;;;;5122647;28;20544;-37
2021/01/30 13:18:06;;;;;;;11.53;5.30;;;7.20;99.90;;;;;;5121831;28;20430;-37
2021/01/30 13:20:33;;;;;;;8.57;4.53;;;7.10;99.90;;;;;;5121555;28;20179;-37
2021/01/30 13:22:59;;;;;;;7.20;4.40;;;7.00;99.90;;;;;;5120138;28;20440;-37
2021/01/30 13:25:25;;;;;;;10.50;5.03;;;7.00;99.90;;;;;;5120254;28;20428;-37
2021/01/30 13:27:51;;;;;;;9.00;4.30;;;6.90;99.90;;;;;;5120440;28;20436;-37